sensor_id;sensor_type;location;lat;lon;timestamp;temperature;humidity
62912;DHT22;49111;51.028;4.218;2022-09-06T00:00:35;18.80;99.90
62912;DHT22;49111;51.028;4.218;2022-09-06T00:03:02;18.90;99.90
62912;DHT22;49111;51.028;4.218;2022-09-06T00:05:29;18.90;99.90
62912;DHT22;49111;51.028;4.218;2022-09-06T00:08:00;18.90;99.90
62912;DHT22;49111;51.028;4.218;2022-09-06T00:10:27;18.90;99.90
62912;DHT22;49111;51.028;4.218;2022-09-06T00:12:53;18.90;99.90
62912;DHT22;49111;51.028;4.218;2022-09-06T00:15:20;18.90;99.90
62912;DHT22;49111;51.028;4.218;2022-09-06T00:17:47;18.80;99.90
62912;DHT22;49111;51.028;4.218;2022-09-06T00:20:13;18.80;99.90
62912;DHT22;49111;51.028;4.218;2022-09-06T00:22:39;18.90;99.90
62912;DHT22;49111;51.028;4.218;2022-09-06T00:25:07;18.90;99.90
62912;DHT22;49111;51.028;4.218;2022-09-06T00:27:33;18.90;99.90
62912;DHT22;49111;51.028;4.218;2022-09-06T00:29:59;18.90;99.90
62912;DHT22;49111;51.028;4.218;2022-09-06T00:32:25;19.00;99.90
62912;DHT22;49111;51.028;4.218;2022-09-06T00:34:51;18.90;99.90
62912;DHT22;49111;51.028;4.218;2022-09-06T00:37:17;18.90;99.90
62912;DHT22;49111;51.028;4.218;2022-09-06T00:39:43;18.80;99.90
62912;DHT22;49111;51.028;4.218;2022-09-06T00:42:11;18.80;99.90
62912;DHT22;49111;51.028;4.218;2022-09-06T00:44:38;18.70;99.90
62912;DHT22;49111;51.028;4.218;2022-09-06T00:47:04;18.80;99.90
62912;DHT22;49111;51.028;4.218;2022-09-06T00:49:35;18.70;99.90
62912;DHT22;49111;51.028;4.218;2022-09-06T00:52:08;18.80;99.90
62912;DHT22;49111;51.028;4.218;2022-09-06T00:54:35;18.70;99.90
62912;DHT22;49111;51.028;4.218;2022-09-06T00:57:01;18.70;99.90
62912;DHT22;49111;51.028;4.218;2022-09-06T00:59:30;18.70;99.90
62912;DHT22;49111;51.028;4.218;2022-09-06T01:01:56;18.60;99.90
62912;DHT22;49111;51.028;4.218;2022-09-06T01:04:23;18.60;99.90
62912;DHT22;49111;51.028;4.218;2022-09-06T01:09:59;18.60;99.90
62912;DHT22;49111;51.028;4.218;2022-09-06T01:12:25;18.60;99.90
62912;DHT22;49111;51.028;4.218;2022-09-06T01:25:58;18.60;99.90
62912;DHT22;49111;51.028;4.218;2022-09-06T01:28:35;18.50;99.90
62912;DHT22;49111;51.028;4.218;2022-09-06T01:33:50;18.50;99.90
62912;DHT22;49111;51.028;4.218;2022-09-06T01:36:22;18.50;99.90
62912;DHT22;49111;51.028;4.218;2022-09-06T01:38:49;18.50;99.90
62912;DHT22;49111;51.028;4.218;2022-09-06T01:41:15;18.40;99.90
62912;DHT22;49111;51.028;4.218;2022-09-06T01:43:44;18.40;99.90
62912;DHT22;49111;51.028;4.218;2022-09-06T01:46:30;18.50;99.90
62912;DHT22;49111;51.028;4.218;2022-09-06T01:57:15;18.40;99.90
62912;DHT22;49111;51.028;4.218;2022-09-06T01:59:52;18.30;99.90
62912;DHT22;49111;51.028;4.218;2022-09-06T02:02:56;18.30;99.90
62912;DHT22;49111;51.028;4.218;2022-09-06T02:08:11;18.20;99.90
62912;DHT22;49111;51.028;4.218;2022-09-06T02:10:41;18.30;99.90
62912;DHT22;49111;51.028;4.218;2022-09-06T02:13:11;18.30;99.90
62912;DHT22;49111;51.028;4.218;2022-09-06T02:15:42;18.30;99.90
62912;DHT22;49111;51.028;4.218;2022-09-06T02:18:15;18.30;99.90
62912;DHT22;49111;51.028;4.218;2022-09-06T02:20:50;18.30;99.90
62912;DHT22;49111;51.028;4.218;2022-09-06T02:23:18;18.30;99.90
62912;DHT22;49111;51.028;4.218;2022-09-06T02:26:04;18.20;99.90
62912;DHT22;49111;51.028;4.218;2022-09-06T02:28:31;18.20;99.90
62912;DHT22;49111;51.028;4.218;2022-09-06T02:31:01;18.20;99.90
62912;DHT22;49111;51.028;4.218;2022-09-06T02:33:30;18.20;99.90
62912;DHT22;49111;51.028;4.218;2022-09-06T02:36:04;18.20;99.90
62912;DHT22;49111;51.028;4.218;2022-09-06T02:38:34;18.20;99.90
62912;DHT22;49111;51.028;4.218;2022-09-06T02:41:02;18.10;99.90
62912;DHT22;49111;51.028;4.218;2022-09-06T02:43:29;18.10;99.90
62912;DHT22;49111;51.028;4.218;2022-09-06T02:45:55;18.10;99.90
62912;DHT22;49111;51.028;4.218;2022-09-06T02:48:20;18.00;99.90
62912;DHT22;49111;51.028;4.218;2022-09-06T02:50:47;18.10;99.90
62912;DHT22;49111;51.028;4.218;2022-09-06T02:53:13;18.00;99.90
62912;DHT22;49111;51.028;4.218;2022-09-06T02:55:40;18.00;99.90
62912;DHT22;49111;51.028;4.218;2022-09-06T02:58:08;18.00;99.90
62912;DHT22;49111;51.028;4.218;2022-09-06T03:00:34;18.00;99.90
62912;DHT22;49111;51.028;4.218;2022-09-06T03:03:00;18.00;99.90
62912;DHT22;49111;51.028;4.218;2022-09-06T03:05:26;18.00;99.90
62912;DHT22;49111;51.028;4.218;2022-09-06T03:07:53;17.90;99.90
62912;DHT22;49111;51.028;4.218;2022-09-06T03:10:20;18.00;99.90
62912;DHT22;49111;51.028;4.218;2022-09-06T03:12:46;18.00;99.90
62912;DHT22;49111;51.028;4.218;2022-09-06T03:15:14;18.00;99.90
62912;DHT22;49111;51.028;4.218;2022-09-06T03:17:41;18.00;99.90
62912;DHT22;49111;51.028;4.218;2022-09-06T03:20:08;18.00;99.90
62912;DHT22;49111;51.028;4.218;2022-09-06T03:22:38;17.90;99.90
62912;DHT22;49111;51.028;4.218;2022-09-06T03:25:08;17.90;99.90
62912;DHT22;49111;51.028;4.218;2022-09-06T03:27:35;17.90;99.90
62912;DHT22;49111;51.028;4.218;2022-09-06T03:30:01;17.90;99.90
62912;DHT22;49111;51.028;4.218;2022-09-06T03:32:27;17.80;99.90
62912;DHT22;49111;51.028;4.218;2022-09-06T03:34:52;17.80;99.90
62912;DHT22;49111;51.028;4.218;2022-09-06T03:37:18;17.80;99.90
62912;DHT22;49111;51.028;4.218;2022-09-06T03:39:44;17.80;99.90
62912;DHT22;49111;51.028;4.218;2022-09-06T03:42:10;17.80;99.90
62912;DHT22;49111;51.028;4.218;2022-09-06T03:44:36;17.80;99.90
62912;DHT22;49111;51.028;4.218;2022-09-06T03:47:02;17.80;99.90
62912;DHT22;49111;51.028;4.218;2022-09-06T03:49:28;17.80;99.90
62912;DHT22;49111;51.028;4.218;2022-09-06T03:51:54;17.70;99.90
62912;DHT22;49111;51.028;4.218;2022-09-06T03:54:19;17.70;99.90
62912;DHT22;49111;51.028;4.218;2022-09-06T03:56:45;17.70;99.90
62912;DHT22;49111;51.028;4.218;2022-09-06T03:59:11;17.70;99.90
62912;DHT22;49111;51.028;4.218;2022-09-06T04:01:37;17.60;99.90
62912;DHT22;49111;51.028;4.218;2022-09-06T04:04:03;17.60;99.90
62912;DHT22;49111;51.028;4.218;2022-09-06T04:06:29;17.60;99.90
62912;DHT22;49111;51.028;4.218;2022-09-06T04:08:54;17.60;99.90
62912;DHT22;49111;51.028;4.218;2022-09-06T04:11:20;17.60;99.90
62912;DHT22;49111;51.028;4.218;2022-09-06T04:13:46;17.60;99.90
62912;DHT22;49111;51.028;4.218;2022-09-06T04:16:12;17.50;99.90
62912;DHT22;49111;51.028;4.218;2022-09-06T04:18:38;17.60;99.90
62912;DHT22;49111;51.028;4.218;2022-09-06T04:21:04;17.50;99.90
62912;DHT22;49111;51.028;4.218;2022-09-06T04:23:30;17.50;99.90
62912;DHT22;49111;51.028;4.218;2022-09-06T04:25:57;17.50;99.90
62912;DHT22;49111;51.028;4.218;2022-09-06T04:28:24;17.50;99.90
62912;DHT22;49111;51.028;4.218;2022-09-06T04:30:52;17.50;99.90
62912;DHT22;49111;51.028;4.218;2022-09-06T04:33:19;17.50;99.90
62912;DHT22;49111;51.028;4.218;2022-09-06T04:35:49;17.40;99.90
62912;DHT22;49111;51.028;4.218;2022-09-06T04:38:15;17.50;99.90
62912;DHT22;49111;51.028;4.218;2022-09-06T04:40:42;17.40;99.90
62912;DHT22;49111;51.028;4.218;2022-09-06T04:43:07;17.40;99.90
62912;DHT22;49111;51.028;4.218;2022-09-06T04:45:33;17.40;99.90
62912;DHT22;49111;51.028;4.218;2022-09-06T04:47:59;17.30;99.90
62912;DHT22;49111;51.028;4.218;2022-09-06T04:50:26;17.30;99.90
62912;DHT22;49111;51.028;4.218;2022-09-06T04:53:03;17.30;99.90
62912;DHT22;49111;51.028;4.218;2022-09-06T04:55:29;17.30;99.90
62912;DHT22;49111;51.028;4.218;2022-09-06T04:57:56;17.30;99.90
62912;DHT22;49111;51.028;4.218;2022-09-06T05:00:29;17.30;99.90
62912;DHT22;49111;51.028;4.218;2022-09-06T05:02:56;17.30;99.90
62912;DHT22;49111;51.028;4.218;2022-09-06T05:05:23;17.30;99.90
62912;DHT22;49111;51.028;4.218;2022-09-06T05:07:53;17.30;99.90
62912;DHT22;49111;51.028;4.218;2022-09-06T05:10:19;17.30;99.90
62912;DHT22;49111;51.028;4.218;2022-09-06T05:12:50;17.30;99.90
62912;DHT22;49111;51.028;4.218;2022-09-06T05:15:17;17.30;99.90
62912;DHT22;49111;51.028;4.218;2022-09-06T05:17:43;17.30;99.90
62912;DHT22;49111;51.028;4.218;2022-09-06T05:20:10;17.30;99.90
62912;DHT22;49111;51.028;4.218;2022-09-06T05:22:37;17.30;99.90
62912;DHT22;49111;51.028;4.218;2022-09-06T05:25:03;17.30;99.90
62912;DHT22;49111;51.028;4.218;2022-09-06T05:27:30;17.30;99.90
62912;DHT22;49111;51.028;4.218;2022-09-06T05:29:56;17.30;99.90
62912;DHT22;49111;51.028;4.218;2022-09-06T05:32:22;17.20;99.90
62912;DHT22;49111;51.028;4.218;2022-09-06T05:34:47;17.20;99.90
62912;DHT22;49111;51.028;4.218;2022-09-06T05:37:13;17.20;99.90
62912;DHT22;49111;51.028;4.218;2022-09-06T05:39:39;17.20;99.90
62912;DHT22;49111;51.028;4.218;2022-09-06T05:42:05;17.20;99.90
62912;DHT22;49111;51.028;4.218;2022-09-06T05:44:35;17.30;99.90
62912;DHT22;49111;51.028;4.218;2022-09-06T05:47:01;17.30;99.90
62912;DHT22;49111;51.028;4.218;2022-09-06T05:49:31;17.30;99.90
62912;DHT22;49111;51.028;4.218;2022-09-06T05:51:57;17.30;99.90
62912;DHT22;49111;51.028;4.218;2022-09-06T05:54:23;17.30;99.90
62912;DHT22;49111;51.028;4.218;2022-09-06T05:56:49;17.30;99.90
62912;DHT22;49111;51.028;4.218;2022-09-06T05:59:15;17.40;99.90
62912;DHT22;49111;51.028;4.218;2022-09-06T06:01:49;17.40;99.90
62912;DHT22;49111;51.028;4.218;2022-09-06T06:04:16;17.40;99.90
62912;DHT22;49111;51.028;4.218;2022-09-06T06:06:44;17.40;99.90
62912;DHT22;49111;51.028;4.218;2022-09-06T06:09:10;17.50;99.90
62912;DHT22;49111;51.028;4.218;2022-09-06T06:11:36;17.50;99.90
62912;DHT22;49111;51.028;4.218;2022-09-06T06:14:03;17.50;99.90
62912;DHT22;49111;51.028;4.218;2022-09-06T06:16:29;17.60;99.90
62912;DHT22;49111;51.028;4.218;2022-09-06T06:18:57;17.60;99.90
62912;DHT22;49111;51.028;4.218;2022-09-06T06:21:25;17.70;99.90
62912;DHT22;49111;51.028;4.218;2022-09-06T06:23:54;17.70;99.90
62912;DHT22;49111;51.028;4.218;2022-09-06T06:26:21;17.70;99.90
62912;DHT22;49111;51.028;4.218;2022-09-06T06:28:47;17.70;99.90
62912;DHT22;49111;51.028;4.218;2022-09-06T06:31:13;17.80;99.90
62912;DHT22;49111;51.028;4.218;2022-09-06T06:33:41;17.90;99.90
62912;DHT22;49111;51.028;4.218;2022-09-06T06:38:41;18.00;99.90
62912;DHT22;49111;51.028;4.218;2022-09-06T06:41:11;18.00;99.90
62912;DHT22;49111;51.028;4.218;2022-09-06T06:43:37;18.00;99.90
62912;DHT22;49111;51.028;4.218;2022-09-06T06:46:14;18.10;99.90
62912;DHT22;49111;51.028;4.218;2022-09-06T06:48:42;18.10;99.90
62912;DHT22;49111;51.028;4.218;2022-09-06T06:51:10;18.20;99.90
62912;DHT22;49111;51.028;4.218;2022-09-06T06:53:36;18.20;99.90
62912;DHT22;49111;51.028;4.218;2022-09-06T06:56:27;18.30;99.90
62912;DHT22;49111;51.028;4.218;2022-09-06T06:58:56;18.30;99.90
62912;DHT22;49111;51.028;4.218;2022-09-06T07:01:23;18.40;99.90
62912;DHT22;49111;51.028;4.218;2022-09-06T07:03:51;18.50;99.90
62912;DHT22;49111;51.028;4.218;2022-09-06T07:06:17;18.50;99.90
62912;DHT22;49111;51.028;4.218;2022-09-06T07:08:43;18.70;99.90
62912;DHT22;49111;51.028;4.218;2022-09-06T07:11:12;18.70;99.90
62912;DHT22;49111;51.028;4.218;2022-09-06T07:13:38;18.80;99.90
62912;DHT22;49111;51.028;4.218;2022-09-06T07:16:21;18.80;99.90
62912;DHT22;49111;51.028;4.218;2022-09-06T07:18:51;19.00;99.90
62912;DHT22;49111;51.028;4.218;2022-09-06T07:21:19;19.10;99.90
62912;DHT22;49111;51.028;4.218;2022-09-06T07:23:46;19.20;99.90
62912;DHT22;49111;51.028;4.218;2022-09-06T07:26:15;19.30;99.90
62912;DHT22;49111;51.028;4.218;2022-09-06T07:28:41;19.20;99.90
62912;DHT22;49111;51.028;4.218;2022-09-06T07:31:07;19.30;99.90
62912;DHT22;49111;51.028;4.218;2022-09-06T07:33:34;19.30;99.90
62912;DHT22;49111;51.028;4.218;2022-09-06T07:36:02;19.40;99.90
62912;DHT22;49111;51.028;4.218;2022-09-06T07:38:28;19.50;99.90
62912;DHT22;49111;51.028;4.218;2022-09-06T07:40:56;19.70;99.90
62912;DHT22;49111;51.028;4.218;2022-09-06T07:43:23;19.60;99.90
62912;DHT22;49111;51.028;4.218;2022-09-06T07:46:00;19.60;99.90
62912;DHT22;49111;51.028;4.218;2022-09-06T07:48:30;19.60;99.90
62912;DHT22;49111;51.028;4.218;2022-09-06T07:51:14;19.70;99.90
62912;DHT22;49111;51.028;4.218;2022-09-06T07:53:46;19.80;99.90
62912;DHT22;49111;51.028;4.218;2022-09-06T07:56:12;19.80;99.90
62912;DHT22;49111;51.028;4.218;2022-09-06T07:58:39;19.90;99.90
62912;DHT22;49111;51.028;4.218;2022-09-06T08:01:28;19.80;99.90
62912;DHT22;49111;51.028;4.218;2022-09-06T08:04:05;19.90;99.90
62912;DHT22;49111;51.028;4.218;2022-09-06T08:06:37;20.00;99.90
62912;DHT22;49111;51.028;4.218;2022-09-06T08:09:05;20.10;99.90
62912;DHT22;49111;51.028;4.218;2022-09-06T08:11:32;20.10;99.90
62912;DHT22;49111;51.028;4.218;2022-09-06T08:14:00;20.20;99.90
62912;DHT22;49111;51.028;4.218;2022-09-06T08:16:27;20.30;99.90
62912;DHT22;49111;51.028;4.218;2022-09-06T08:18:56;20.40;99.90
62912;DHT22;49111;51.028;4.218;2022-09-06T08:21:23;20.40;99.90
62912;DHT22;49111;51.028;4.218;2022-09-06T08:23:55;20.40;99.90
62912;DHT22;49111;51.028;4.218;2022-09-06T08:26:23;20.50;99.90
62912;DHT22;49111;51.028;4.218;2022-09-06T08:29:00;20.60;99.90
62912;DHT22;49111;51.028;4.218;2022-09-06T08:31:28;20.60;99.90
62912;DHT22;49111;51.028;4.218;2022-09-06T08:33:54;20.70;99.90
62912;DHT22;49111;51.028;4.218;2022-09-06T08:36:22;20.80;99.90
62912;DHT22;49111;51.028;4.218;2022-09-06T08:38:48;20.80;99.90
62912;DHT22;49111;51.028;4.218;2022-09-06T08:43:57;20.80;99.90
62912;DHT22;49111;51.028;4.218;2022-09-06T08:46:51;21.00;99.90
62912;DHT22;49111;51.028;4.218;2022-09-06T08:49:18;21.10;99.90
62912;DHT22;49111;51.028;4.218;2022-09-06T08:54:24;21.20;99.90
62912;DHT22;49111;51.028;4.218;2022-09-06T08:57:37;21.20;99.90
62912;DHT22;49111;51.028;4.218;2022-09-06T09:00:07;21.10;99.90
62912;DHT22;49111;51.028;4.218;2022-09-06T09:02:48;21.20;99.90
62912;DHT22;49111;51.028;4.218;2022-09-06T09:05:42;21.30;99.90
62912;DHT22;49111;51.028;4.218;2022-09-06T09:11:04;21.50;99.90
62912;DHT22;49111;51.028;4.218;2022-09-06T09:16:11;21.70;99.90
62912;DHT22;49111;51.028;4.218;2022-09-06T09:18:39;21.80;99.90
62912;DHT22;49111;51.028;4.218;2022-09-06T09:21:08;21.90;99.90
62912;DHT22;49111;51.028;4.218;2022-09-06T09:23:35;22.00;99.90
62912;DHT22;49111;51.028;4.218;2022-09-06T09:26:04;22.00;99.90
62912;DHT22;49111;51.028;4.218;2022-09-06T09:28:30;22.00;99.90
62912;DHT22;49111;51.028;4.218;2022-09-06T09:30:56;21.90;99.90
62912;DHT22;49111;51.028;4.218;2022-09-06T09:33:33;21.80;99.90
62912;DHT22;49111;51.028;4.218;2022-09-06T09:36:11;22.00;99.90
62912;DHT22;49111;51.028;4.218;2022-09-06T09:38:44;22.10;99.90
62912;DHT22;49111;51.028;4.218;2022-09-06T09:43:57;22.30;99.90
62912;DHT22;49111;51.028;4.218;2022-09-06T09:54:30;22.60;99.70
62912;DHT22;49111;51.028;4.218;2022-09-06T09:56:56;22.60;99.80
62912;DHT22;49111;51.028;4.218;2022-09-06T10:04:51;22.80;98.20
62912;DHT22;49111;51.028;4.218;2022-09-06T10:07:20;22.90;98.50
62912;DHT22;49111;51.028;4.218;2022-09-06T10:10:00;23.00;99.20
62912;DHT22;49111;51.028;4.218;2022-09-06T10:12:36;23.20;98.50
62912;DHT22;49111;51.028;4.218;2022-09-06T10:15:09;23.40;97.80
62912;DHT22;49111;51.028;4.218;2022-09-06T10:17:50;23.50;98.20
62912;DHT22;49111;51.028;4.218;2022-09-06T10:20:16;23.60;98.20
62912;DHT22;49111;51.028;4.218;2022-09-06T10:34:17;24.20;95.10
62912;DHT22;49111;51.028;4.218;2022-09-06T10:45:16;24.50;94.20
62912;DHT22;49111;51.028;4.218;2022-09-06T10:48:07;24.60;93.00
62912;DHT22;49111;51.028;4.218;2022-09-06T10:50:43;24.70;93.30
62912;DHT22;49111;51.028;4.218;2022-09-06T10:56:28;24.70;92.00
62912;DHT22;49111;51.028;4.218;2022-09-06T10:59:07;24.70;92.20
62912;DHT22;49111;51.028;4.218;2022-09-06T11:01:41;24.80;92.10
62912;DHT22;49111;51.028;4.218;2022-09-06T11:04:17;24.90;92.20
62912;DHT22;49111;51.028;4.218;2022-09-06T11:06:51;25.00;92.70
62912;DHT22;49111;51.028;4.218;2022-09-06T11:09:31;25.10;91.10
62912;DHT22;49111;51.028;4.218;2022-09-06T11:12:13;25.20;90.20
62912;DHT22;49111;51.028;4.218;2022-09-06T11:14:42;25.40;89.50
62912;DHT22;49111;51.028;4.218;2022-09-06T11:17:13;25.50;90.10
62912;DHT22;49111;51.028;4.218;2022-09-06T11:20:02;25.50;88.90
62912;DHT22;49111;51.028;4.218;2022-09-06T11:28:08;25.70;90.30
62912;DHT22;49111;51.028;4.218;2022-09-06T11:30:35;25.70;89.70
62912;DHT22;49111;51.028;4.218;2022-09-06T11:33:24;25.80;89.90
62912;DHT22;49111;51.028;4.218;2022-09-06T11:35:51;26.00;89.80
62912;DHT22;49111;51.028;4.218;2022-09-06T11:38:23;26.00;88.20
62912;DHT22;49111;51.028;4.218;2022-09-06T11:41:03;26.20;89.90
62912;DHT22;49111;51.028;4.218;2022-09-06T11:49:07;26.50;86.20
62912;DHT22;49111;51.028;4.218;2022-09-06T11:51:39;26.70;85.80
62912;DHT22;49111;51.028;4.218;2022-09-06T11:54:27;26.80;84.60
62912;DHT22;49111;51.028;4.218;2022-09-06T11:57:00;26.90;84.50
62912;DHT22;49111;51.028;4.218;2022-09-06T11:59:34;27.00;83.00
62912;DHT22;49111;51.028;4.218;2022-09-06T12:02:06;27.10;84.90
62912;DHT22;49111;51.028;4.218;2022-09-06T12:07:24;27.00;85.60
62912;DHT22;49111;51.028;4.218;2022-09-06T12:09:50;27.00;87.70
62912;DHT22;49111;51.028;4.218;2022-09-06T12:12:43;27.10;83.30
62912;DHT22;49111;51.028;4.218;2022-09-06T12:15:43;27.40;82.50
62912;DHT22;49111;51.028;4.218;2022-09-06T12:21:38;27.70;81.20
62912;DHT22;49111;51.028;4.218;2022-09-06T12:29:49;27.90;79.50
62912;DHT22;49111;51.028;4.218;2022-09-06T12:32:40;28.00;78.60
62912;DHT22;49111;51.028;4.218;2022-09-06T12:35:12;28.00;78.20
62912;DHT22;49111;51.028;4.218;2022-09-06T12:37:52;28.10;78.20
62912;DHT22;49111;51.028;4.218;2022-09-06T12:40:19;28.10;77.70
62912;DHT22;49111;51.028;4.218;2022-09-06T12:42:47;28.20;76.60
62912;DHT22;49111;51.028;4.218;2022-09-06T12:45:13;28.30;79.90
62912;DHT22;49111;51.028;4.218;2022-09-06T12:47:39;28.20;78.10
62912;DHT22;49111;51.028;4.218;2022-09-06T12:50:19;28.20;79.80
62912;DHT22;49111;51.028;4.218;2022-09-06T12:52:57;28.20;75.80
62912;DHT22;49111;51.028;4.218;2022-09-06T12:55:33;28.30;75.00
62912;DHT22;49111;51.028;4.218;2022-09-06T12:58:02;28.40;77.20
62912;DHT22;49111;51.028;4.218;2022-09-06T13:00:38;28.60;76.30
62912;DHT22;49111;51.028;4.218;2022-09-06T13:05:41;28.80;74.00
62912;DHT22;49111;51.028;4.218;2022-09-06T13:08:15;29.00;73.70
62912;DHT22;49111;51.028;4.218;2022-09-06T13:10:45;29.00;74.30
62912;DHT22;49111;51.028;4.218;2022-09-06T13:13:18;28.90;75.10
62912;DHT22;49111;51.028;4.218;2022-09-06T13:15:46;28.90;76.10
62912;DHT22;49111;51.028;4.218;2022-09-06T13:18:32;29.00;74.20
62912;DHT22;49111;51.028;4.218;2022-09-06T13:21:01;29.20;72.60
62912;DHT22;49111;51.028;4.218;2022-09-06T13:23:28;29.30;73.20
62912;DHT22;49111;51.028;4.218;2022-09-06T13:25:55;29.30;73.20
62912;DHT22;49111;51.028;4.218;2022-09-06T13:28:32;29.40;71.10
62912;DHT22;49111;51.028;4.218;2022-09-06T13:31:06;29.30;70.80
62912;DHT22;49111;51.028;4.218;2022-09-06T13:33:33;29.50;70.90
62912;DHT22;49111;51.028;4.218;2022-09-06T13:36:15;29.70;71.20
62912;DHT22;49111;51.028;4.218;2022-09-06T13:38:44;29.80;70.30
62912;DHT22;49111;51.028;4.218;2022-09-06T13:46:40;29.90;69.80
62912;DHT22;49111;51.028;4.218;2022-09-06T13:49:06;29.90;68.80
62912;DHT22;49111;51.028;4.218;2022-09-06T13:51:32;29.80;68.40
62912;DHT22;49111;51.028;4.218;2022-09-06T13:54:17;29.70;69.30
62912;DHT22;49111;51.028;4.218;2022-09-06T13:56:43;29.40;68.80
62912;DHT22;49111;51.028;4.218;2022-09-06T13:59:13;29.30;70.80
62912;DHT22;49111;51.028;4.218;2022-09-06T14:01:43;29.20;70.10
62912;DHT22;49111;51.028;4.218;2022-09-06T14:04:13;29.10;70.50
62912;DHT22;49111;51.028;4.218;2022-09-06T14:06:40;28.90;70.20
62912;DHT22;49111;51.028;4.218;2022-09-06T14:09:06;28.80;70.30
62912;DHT22;49111;51.028;4.218;2022-09-06T14:11:33;28.80;70.40
62912;DHT22;49111;51.028;4.218;2022-09-06T14:13:59;28.90;70.20
62912;DHT22;49111;51.028;4.218;2022-09-06T14:16:24;29.00;70.30
62912;DHT22;49111;51.028;4.218;2022-09-06T14:18:50;29.00;72.30
62912;DHT22;49111;51.028;4.218;2022-09-06T14:21:16;29.10;71.30
62912;DHT22;49111;51.028;4.218;2022-09-06T14:23:42;29.20;70.20
62912;DHT22;49111;51.028;4.218;2022-09-06T14:26:08;29.20;68.20
62912;DHT22;49111;51.028;4.218;2022-09-06T14:28:35;29.30;68.70
62912;DHT22;49111;51.028;4.218;2022-09-06T14:31:29;29.20;71.60
62912;DHT22;49111;51.028;4.218;2022-09-06T14:33:57;29.20;71.80
62912;DHT22;49111;51.028;4.218;2022-09-06T14:36:25;29.20;73.20
62912;DHT22;49111;51.028;4.218;2022-09-06T14:38:51;29.20;72.30
62912;DHT22;49111;51.028;4.218;2022-09-06T14:41:18;29.20;74.00
62912;DHT22;49111;51.028;4.218;2022-09-06T14:43:49;29.10;74.30
62912;DHT22;49111;51.028;4.218;2022-09-06T14:46:16;29.10;74.50
62912;DHT22;49111;51.028;4.218;2022-09-06T14:48:42;29.00;76.30
62912;DHT22;49111;51.028;4.218;2022-09-06T14:51:17;28.90;77.30
62912;DHT22;49111;51.028;4.218;2022-09-06T14:53:47;28.80;74.90
62912;DHT22;49111;51.028;4.218;2022-09-06T14:56:14;28.60;73.60
62912;DHT22;49111;51.028;4.218;2022-09-06T14:58:41;28.50;74.70
62912;DHT22;49111;51.028;4.218;2022-09-06T15:01:13;28.40;75.40
62912;DHT22;49111;51.028;4.218;2022-09-06T15:03:44;28.20;76.70
62912;DHT22;49111;51.028;4.218;2022-09-06T15:06:16;28.10;77.30
62912;DHT22;49111;51.028;4.218;2022-09-06T15:08:43;28.00;77.20
62912;DHT22;49111;51.028;4.218;2022-09-06T15:11:09;27.90;76.10
62912;DHT22;49111;51.028;4.218;2022-09-06T15:13:38;27.80;76.40
62912;DHT22;49111;51.028;4.218;2022-09-06T15:16:05;27.80;73.80
62912;DHT22;49111;51.028;4.218;2022-09-06T15:18:32;27.80;75.80
62912;DHT22;49111;51.028;4.218;2022-09-06T15:21:10;27.80;78.90
62912;DHT22;49111;51.028;4.218;2022-09-06T15:23:37;27.70;81.00
62912;DHT22;49111;51.028;4.218;2022-09-06T15:26:06;27.60;80.80
62912;DHT22;49111;51.028;4.218;2022-09-06T15:28:34;27.60;80.40
62912;DHT22;49111;51.028;4.218;2022-09-06T15:31:00;27.50;77.20
62912;DHT22;49111;51.028;4.218;2022-09-06T15:33:30;27.40;76.60
62912;DHT22;49111;51.028;4.218;2022-09-06T15:35:56;27.20;76.90
62912;DHT22;49111;51.028;4.218;2022-09-06T15:38:22;27.20;76.30
62912;DHT22;49111;51.028;4.218;2022-09-06T15:40:48;27.20;76.80
62912;DHT22;49111;51.028;4.218;2022-09-06T15:43:15;27.20;80.10
62912;DHT22;49111;51.028;4.218;2022-09-06T15:45:46;27.20;78.80
62912;DHT22;49111;51.028;4.218;2022-09-06T15:48:14;27.20;80.00
62912;DHT22;49111;51.028;4.218;2022-09-06T15:50:41;27.20;79.40
62912;DHT22;49111;51.028;4.218;2022-09-06T15:53:08;27.30;76.40
62912;DHT22;49111;51.028;4.218;2022-09-06T15:55:34;27.30;76.50
62912;DHT22;49111;51.028;4.218;2022-09-06T15:58:18;27.20;78.90
62912;DHT22;49111;51.028;4.218;2022-09-06T16:00:44;27.20;78.60
62912;DHT22;49111;51.028;4.218;2022-09-06T16:03:10;27.20;79.40
62912;DHT22;49111;51.028;4.218;2022-09-06T16:05:36;27.20;79.60
62912;DHT22;49111;51.028;4.218;2022-09-06T16:08:02;27.20;79.30
62912;DHT22;49111;51.028;4.218;2022-09-06T16:10:28;27.20;77.90
62912;DHT22;49111;51.028;4.218;2022-09-06T16:12:54;27.20;78.10
62912;DHT22;49111;51.028;4.218;2022-09-06T16:15:20;27.30;79.40
62912;DHT22;49111;51.028;4.218;2022-09-06T16:17:46;27.30;79.40
62912;DHT22;49111;51.028;4.218;2022-09-06T16:20:13;27.40;78.10
62912;DHT22;49111;51.028;4.218;2022-09-06T16:22:39;27.50;77.20
62912;DHT22;49111;51.028;4.218;2022-09-06T16:25:05;27.50;77.10
62912;DHT22;49111;51.028;4.218;2022-09-06T16:27:31;27.50;77.50
62912;DHT22;49111;51.028;4.218;2022-09-06T16:29:57;27.50;77.60
62912;DHT22;49111;51.028;4.218;2022-09-06T16:32:23;27.60;77.00
62912;DHT22;49111;51.028;4.218;2022-09-06T16:34:49;27.60;77.40
62912;DHT22;49111;51.028;4.218;2022-09-06T16:37:15;27.60;76.60
62912;DHT22;49111;51.028;4.218;2022-09-06T16:39:41;27.50;74.50
62912;DHT22;49111;51.028;4.218;2022-09-06T16:42:07;27.30;74.90
62912;DHT22;49111;51.028;4.218;2022-09-06T16:44:33;27.30;74.40
62912;DHT22;49111;51.028;4.218;2022-09-06T16:46:59;27.30;76.70
62912;DHT22;49111;51.028;4.218;2022-09-06T16:49:28;27.30;77.00
62912;DHT22;49111;51.028;4.218;2022-09-06T16:51:54;27.30;78.10
62912;DHT22;49111;51.028;4.218;2022-09-06T16:54:20;27.30;79.80
62912;DHT22;49111;51.028;4.218;2022-09-06T16:56:46;27.20;80.50
62912;DHT22;49111;51.028;4.218;2022-09-06T16:59:12;27.20;81.20
62912;DHT22;49111;51.028;4.218;2022-09-06T17:01:39;27.10;82.20
62912;DHT22;49111;51.028;4.218;2022-09-06T17:04:06;27.00;82.90
62912;DHT22;49111;51.028;4.218;2022-09-06T17:06:33;26.90;83.10
62912;DHT22;49111;51.028;4.218;2022-09-06T17:09:03;26.80;83.80
62912;DHT22;49111;51.028;4.218;2022-09-06T17:11:30;26.70;84.50
62912;DHT22;49111;51.028;4.218;2022-09-06T17:13:56;26.60;85.20
62912;DHT22;49111;51.028;4.218;2022-09-06T17:16:23;26.50;85.90
62912;DHT22;49111;51.028;4.218;2022-09-06T17:19:08;26.40;86.20
62912;DHT22;49111;51.028;4.218;2022-09-06T17:21:34;26.40;87.50
62912;DHT22;49111;51.028;4.218;2022-09-06T17:24:02;26.30;87.20
62912;DHT22;49111;51.028;4.218;2022-09-06T17:26:31;26.20;87.20
62912;DHT22;49111;51.028;4.218;2022-09-06T17:28:57;26.10;87.50
62912;DHT22;49111;51.028;4.218;2022-09-06T17:31:24;26.10;87.90
62912;DHT22;49111;51.028;4.218;2022-09-06T17:33:50;26.00;88.30
62912;DHT22;49111;51.028;4.218;2022-09-06T17:36:19;26.00;88.40